Scantic, Connecticut
Current Conditions -  °F | °C
As of 8:51 AM on Friday 28 Nov 2014 (Local Time) from KBDL Reporting Station
Scattered Clouds Scattered Clouds  
Wind Chill: 23°   Ceiling: Unl
Heat Index: 33°   Visibility: 10mi
Dew Point: 21°   Wind: 14mph
Humidity: 61%   Direction: 300°WNW
Pressure: 30.09"   Gusts: NA
Location:  41.9062°N, 72.5958°W
Report Text: KBDL 281351Z 30012KT 10SM SCT035 SCT048 01/M06 A3009 RMK AO2 SLP192 T00061061
Loading
Personal Weather Stations






























Interactive Weather Map New forecast layout! Learn more

10-Day Weather Forecast

Advertisements
Track Severe Weather on mobile